createdAt,value
2023-05-17T00:02:30.172Z,99593.84
2023-05-17T00:05:03.987Z,99600.86
2023-05-17T00:07:37.639Z,99589.50
2023-05-17T00:10:12.791Z,99593.02
2023-05-17T00:12:46.734Z,99596.55
2023-05-17T00:15:22.173Z,99588.64
2023-05-17T00:17:56.046Z,99595.69
2023-05-17T00:20:29.711Z,99599.19
2023-05-17T00:23:03.262Z,99593.95
2023-05-17T00:25:36.963Z,99600.94
2023-05-17T00:28:10.439Z,99598.34
2023-05-17T00:30:43.949Z,99608.89
2023-05-17T00:33:17.183Z,99609.77
2023-05-17T00:35:50.708Z,99623.80
2023-05-17T00:38:24.522Z,99620.29
2023-05-17T00:40:58.978Z,99615.94
2023-05-17T00:43:32.464Z,99615.04
2023-05-17T00:46:05.957Z,99609.80
2023-05-17T00:48:39.776Z,99614.20
2023-05-17T00:51:13.594Z,99617.72
2023-05-17T00:53:47.217Z,99617.72
2023-05-17T00:56:20.607Z,99624.74
2023-05-17T00:58:54.697Z,99627.42
2023-05-17T01:01:29.376Z,99621.29
2023-05-17T01:04:03.204Z,99623.05
2023-05-17T01:06:37.075Z,99627.42
2023-05-17T01:09:12.522Z,99630.95
2023-05-17T01:11:49.944Z,99629.19
2023-05-17T01:14:31.910Z,99641.47
2023-05-17T01:17:08.217Z,99640.63
2023-05-17T01:20:07.750Z,99643.25
2023-05-17T01:22:48.541Z,99634.50
2023-05-17T01:25:30.965Z,99635.40
2023-05-17T01:28:05.800Z,99640.64
2023-05-17T01:30:41.260Z,99643.29
2023-05-17T01:33:16.493Z,99645.03
2023-05-17T01:35:49.946Z,99649.41
2023-05-17T01:38:23.491Z,99646.78
2023-05-17T01:40:59.946Z,99649.41
2023-05-17T01:43:38.691Z,99651.19
2023-05-17T01:46:17.091Z,99658.19
2023-05-17T01:48:54.694Z,99655.55
2023-05-17T01:51:31.354Z,99655.55
2023-05-17T01:54:10.160Z,99655.55
2023-05-17T01:56:46.893Z,99649.42
2023-05-17T01:59:25.496Z,99658.17
2023-05-17T02:02:03.938Z,99662.56
2023-05-17T02:04:38.068Z,99653.82
2023-05-17T02:07:11.738Z,99655.55
2023-05-17T02:09:46.136Z,99660.80
2023-05-17T02:12:19.982Z,99655.55
2023-05-17T02:14:53.465Z,99662.56
2023-05-17T02:17:27.057Z,99658.20
2023-05-17T02:20:00.893Z,99652.95
2023-05-17T02:22:35.308Z,99659.95
2023-05-17T02:25:10.850Z,99666.92
2023-05-17T02:27:46.108Z,99663.43
2023-05-17T02:30:21.407Z,99666.06
2023-05-17T02:32:56.941Z,99666.95
2023-05-17T02:35:31.197Z,99672.20
2023-05-17T02:38:04.887Z,99674.83
2023-05-17T02:40:38.405Z,99666.08
2023-05-17T02:43:12.097Z,99668.70
2023-05-17T02:45:46.448Z,99673.94
2023-05-17T02:48:19.902Z,99666.91
2023-05-17T02:50:55.286Z,99671.30
2023-05-17T02:53:28.916Z,99673.06
2023-05-17T02:56:03.798Z,99674.80
2023-05-17T02:58:37.804Z,99675.67
2023-05-17T03:01:11.263Z,99669.56
2023-05-17T03:03:45.078Z,99669.55
2023-05-17T03:06:19.102Z,99678.31
2023-05-17T03:08:53.032Z,99678.31
2023-05-17T03:11:26.548Z,99678.31
2023-05-17T03:14:01.224Z,99673.92
2023-05-17T03:16:36.453Z,99682.67
2023-05-17T03:19:11.352Z,99680.93
2023-05-17T03:21:45.623Z,99682.67
2023-05-17T03:24:19.267Z,99685.27
2023-05-17T03:26:52.872Z,99680.89
2023-05-17T03:29:26.356Z,99688.77
2023-05-17T03:31:59.934Z,99690.50
2023-05-17T03:34:33.358Z,99688.75
2023-05-17T03:37:07.152Z,99689.63
2023-05-17T03:39:40.762Z,99687.86
2023-05-17T03:42:14.396Z,99686.95
2023-05-17T03:44:48.136Z,99691.34
2023-05-17T03:47:24.158Z,99694.84
2023-05-17T03:49:57.650Z,99694.80
2023-05-17T03:52:31.457Z,99694.81
2023-05-17T03:55:06.089Z,99693.02
2023-05-17T03:57:40.351Z,99696.53
2023-05-17T04:00:18.502Z,99706.15
2023-05-17T04:02:52.305Z,99707.88
2023-05-17T04:05:27.243Z,99706.11
2023-05-17T04:08:01.648Z,99699.04
2023-05-17T04:13:17.175Z,99711.14
2023-05-17T04:15:51.396Z,99712.03
2023-05-17T04:18:24.977Z,99713.74
2023-05-17T04:20:59.637Z,99715.45
2023-05-17T04:23:33.473Z,99712.75
2023-05-17T04:26:08.045Z,99710.92
2023-05-17T04:28:42.999Z,99709.08
2023-05-17T04:31:18.832Z,99714.30
2023-05-17T04:33:52.619Z,99708.06
2023-05-17T04:36:26.877Z,99713.23
2023-05-17T04:39:05.623Z,99717.50
2023-05-17T04:41:45.559Z,99712.11
2023-05-17T04:44:20.979Z,99725.22
2023-05-17T04:49:43.522Z,99719.59
2023-05-17T04:52:17.045Z,99723.16
2023-05-17T04:54:52.168Z,99723.94
2023-05-17T04:57:27.374Z,99720.34
2023-05-17T05:00:03.265Z,99723.75
2023-05-17T05:02:38.234Z,99720.14
2023-05-17T05:05:13.274Z,99711.22
2023-05-17T05:07:47.993Z,99718.18
2023-05-17T05:10:21.961Z,99718.08
2023-05-17T05:12:55.532Z,99716.25
2023-05-17T05:15:29.974Z,99716.08
2023-05-17T05:18:04.918Z,99718.58
2023-05-17T05:20:38.738Z,99723.75
2023-05-17T05:23:12.725Z,99720.09
2023-05-17T05:25:48.079Z,99717.30
2023-05-17T05:28:22.416Z,99708.33
2023-05-17T05:31:00.913Z,99728.45
2023-05-17T05:33:36.568Z,99726.61
2023-05-17T05:36:12.334Z,99722.98
2023-05-17T05:38:49.393Z,99719.30
2023-05-17T05:41:23.005Z,99728.78
2023-05-17T05:43:56.586Z,99725.21
2023-05-17T05:46:30.171Z,99722.39
2023-05-17T05:49:04.511Z,99724.93
2023-05-17T05:51:38.542Z,99719.38
2023-05-17T05:54:12.694Z,99735.08
2023-05-17T05:56:46.355Z,99741.16
2023-05-17T05:59:20.849Z,99714.83
2023-05-17T06:01:54.745Z,99748.20
2023-05-17T06:04:36.716Z,99741.94
2023-05-17T06:07:03.675Z,99760.43
2023-05-17T06:09:37.148Z,99740.11
2023-05-17T06:12:10.924Z,99736.52
2023-05-17T06:14:45.561Z,99727.57
2023-05-17T06:17:19.318Z,99733.68
2023-05-17T06:19:52.947Z,99736.16
2023-05-17T06:22:26.774Z,99729.03
2023-05-17T06:25:00.716Z,99720.16
2023-05-17T06:27:35.219Z,99717.30
2023-05-17T06:30:10.808Z,99712.72
2023-05-17T06:32:44.485Z,99717.80
2023-05-17T06:35:27.054Z,99725.59
2023-05-17T06:38:00.937Z,99725.36
2023-05-17T06:40:34.737Z,99718.03
2023-05-17T06:43:08.468Z,99719.66
2023-05-17T06:45:41.911Z,99730.36
2023-05-17T06:48:15.322Z,99718.80
2023-05-17T06:50:48.845Z,99720.23
2023-05-17T06:53:22.590Z,99722.16
2023-05-17T06:55:56.463Z,99730.15
2023-05-17T06:58:30.040Z,99722.02
2023-05-17T07:01:03.496Z,99716.78
2023-05-17T07:03:37.152Z,99712.64
2023-05-17T07:06:19.198Z,99729.11
2023-05-17T07:08:46.699Z,99709.95
2023-05-17T07:11:19.820Z,99710.34
2023-05-17T07:13:54.577Z,99724.13
2023-05-17T07:16:28.891Z,99734.78
2023-05-17T07:19:02.759Z,99739.70
2023-05-17T07:21:36.611Z,99699.92
2023-05-17T07:24:10.480Z,99720.22
2023-05-17T07:26:44.080Z,99708.11
2023-05-17T07:29:17.767Z,99717.24
2023-05-17T07:31:51.334Z,99726.78
2023-05-17T07:34:24.971Z,99721.03
2023-05-17T07:36:58.434Z,99719.93
2023-05-17T07:39:32.190Z,99716.09
2023-05-17T07:42:06.784Z,99717.86
2023-05-17T07:44:40.257Z,99714.42
2023-05-17T07:47:13.751Z,99716.64
2023-05-17T07:49:47.672Z,99727.76
2023-05-17T07:52:21.785Z,99723.24
2023-05-17T07:54:55.199Z,99726.11
2023-05-17T07:57:28.866Z,99720.42
2023-05-17T08:00:02.733Z,99715.98
2023-05-17T08:02:38.280Z,99717.84
2023-05-17T08:05:12.891Z,99717.23
2023-05-17T08:07:46.819Z,99718.32
2023-05-17T08:10:20.581Z,99706.93
2023-05-17T08:15:36.310Z,99717.91
2023-05-17T08:18:10.299Z,99734.39
2023-05-17T08:20:43.966Z,99721.31
2023-05-17T08:23:17.487Z,99736.04
2023-05-17T08:25:50.770Z,99738.36
2023-05-17T08:28:24.288Z,99715.49
2023-05-17T08:30:57.851Z,99715.03
2023-05-17T08:33:31.442Z,99727.36
2023-05-17T08:36:06.787Z,99729.69
2023-05-17T08:38:40.317Z,99725.19
2023-05-17T08:41:14.543Z,99712.95
2023-05-17T08:43:48.663Z,99715.27
2023-05-17T08:46:22.581Z,99703.03
2023-05-17T08:51:39.711Z,99703.37
2023-05-17T08:54:14.373Z,99702.06
2023-05-17T08:56:51.030Z,99690.75
2023-05-17T08:59:25.250Z,99697.16
2023-05-17T09:01:58.816Z,99688.94
2023-05-17T09:04:33.412Z,99716.81
2023-05-17T09:07:07.918Z,99731.17
2023-05-17T09:09:41.853Z,99719.90
2023-05-17T09:12:15.654Z,99697.42
2023-05-17T09:14:49.286Z,99698.48
2023-05-17T09:17:23.632Z,99694.75
2023-05-17T09:19:58.638Z,99698.61
2023-05-17T09:22:32.843Z,99693.59
2023-05-17T09:25:07.464Z,99678.89
2023-05-17T09:27:41.548Z,99663.78
2023-05-17T09:30:16.033Z,99679.45
2023-05-17T09:32:54.095Z,99685.20
2023-05-17T09:35:32.887Z,99683.22
2023-05-17T09:38:11.511Z,99678.66
2023-05-17T09:40:46.804Z,99667.52
2023-05-17T09:43:26.348Z,99680.62
2023-05-17T09:46:00.765Z,99689.44
2023-05-17T09:48:34.468Z,99677.11
2023-05-17T09:51:09.050Z,99679.56
2023-05-17T09:53:43.242Z,99682.37
2023-05-17T09:56:17.522Z,99656.13
2023-05-17T09:58:52.622Z,99665.48
2023-05-17T10:01:28.799Z,99658.60
2023-05-17T10:04:03.939Z,99674.54
2023-05-17T10:09:18.637Z,99677.97
2023-05-17T10:11:56.816Z,99677.56
2023-05-17T10:14:32.974Z,99672.45
2023-05-17T10:17:09.260Z,99659.39
2023-05-17T10:19:43.140Z,99660.70
2023-05-17T10:22:23.161Z,99661.77
2023-05-17T10:24:54.471Z,99655.11
2023-05-17T10:27:29.837Z,99679.70
2023-05-17T10:30:04.122Z,99671.88
2023-05-17T10:35:19.114Z,99657.45
2023-05-17T10:40:36.924Z,99646.53
2023-05-17T10:43:12.335Z,99637.03
2023-05-17T10:45:49.472Z,99662.20
2023-05-17T10:48:23.683Z,99679.11
2023-05-17T10:51:01.848Z,99642.08
2023-05-17T10:53:33.753Z,99644.23
2023-05-17T10:56:08.198Z,99641.31
2023-05-17T10:58:41.850Z,99661.44
2023-05-17T11:01:23.743Z,99650.63
2023-05-17T11:03:58.501Z,99646.93
2023-05-17T11:06:38.521Z,99664.20
2023-05-17T11:09:17.724Z,99651.64
2023-05-17T11:12:11.556Z,99649.73
2023-05-17T11:14:52.638Z,99643.13
2023-05-17T11:17:27.705Z,99632.55
2023-05-17T11:20:27.983Z,99629.77
2023-05-17T11:22:48.444Z,99634.70
2023-05-17T11:25:22.771Z,99633.80
2023-05-17T11:27:56.413Z,99621.13
2023-05-17T11:30:32.014Z,99630.63
2023-05-17T11:33:13.906Z,99628.91
2023-05-17T11:35:42.765Z,99602.00
2023-05-17T11:38:18.006Z,99596.17
2023-05-17T11:40:54.773Z,99608.98
2023-05-17T11:43:28.556Z,99602.76
2023-05-17T11:46:03.934Z,99621.62
2023-05-17T11:48:38.054Z,99640.24
2023-05-17T11:51:14.198Z,99611.70
2023-05-17T11:53:48.887Z,99616.81
2023-05-17T11:56:35.535Z,99607.20
2023-05-17T11:59:01.158Z,99605.95
2023-05-17T12:01:46.483Z,99595.53
2023-05-17T12:04:27.340Z,99592.18
2023-05-17T12:09:34.911Z,99583.73
2023-05-17T12:12:09.840Z,99578.56
2023-05-17T12:14:45.727Z,99602.06
2023-05-17T12:17:25.347Z,99587.27
2023-05-17T12:20:00.851Z,99576.36
2023-05-17T12:22:34.577Z,99580.64
2023-05-17T12:25:21.090Z,99562.31
2023-05-17T12:27:53.131Z,99563.11
2023-05-17T12:30:28.032Z,99564.84
2023-05-17T12:33:01.962Z,99569.56
2023-05-17T12:35:35.666Z,99565.51
2023-05-17T12:38:11.545Z,99545.13
2023-05-17T12:40:45.321Z,99559.02
2023-05-17T12:43:19.962Z,99551.55
2023-05-17T12:45:53.893Z,99549.59
2023-05-17T12:48:30.062Z,99540.08
2023-05-17T12:51:11.859Z,99539.59
2023-05-17T12:53:46.274Z,99536.64
2023-05-17T12:56:21.713Z,99532.02
2023-05-17T12:59:09.127Z,99530.11
2023-05-17T13:01:45.061Z,99549.88
2023-05-17T13:04:19.402Z,99543.41
2023-05-17T13:06:54.777Z,99526.17
2023-05-17T13:09:31.270Z,99527.95
2023-05-17T13:12:06.908Z,99522.17
2023-05-17T13:14:45.276Z,99534.52
2023-05-17T13:17:21.135Z,99526.89
2023-05-17T13:19:54.550Z,99532.12
2023-05-17T13:22:28.220Z,99545.67
2023-05-17T13:25:01.547Z,99533.34
2023-05-17T13:27:35.759Z,99521.19
2023-05-17T13:30:12.342Z,99541.63
2023-05-17T13:32:47.683Z,99513.05
2023-05-17T13:35:21.105Z,99519.72
2023-05-17T13:37:54.464Z,99526.14
2023-05-17T13:40:28.239Z,99517.48
2023-05-17T13:43:01.887Z,99527.94
2023-05-17T13:45:35.223Z,99528.20
2023-05-17T13:48:08.849Z,99532.47
2023-05-17T13:50:42.276Z,99531.51
2023-05-17T13:53:15.547Z,99544.60
2023-05-17T13:55:49.279Z,99521.52
2023-05-17T13:58:22.686Z,99530.44
2023-05-17T14:00:56.479Z,99535.77
2023-05-17T14:03:30.158Z,99516.50
2023-05-17T14:06:04.449Z,99509.23
2023-05-17T14:08:38.057Z,99505.78
2023-05-17T14:11:11.859Z,99493.70
2023-05-17T14:13:45.042Z,99488.41
2023-05-17T14:16:18.262Z,99506.81
2023-05-17T14:18:52.052Z,99491.30
2023-05-17T14:21:25.469Z,99494.02
2023-05-17T14:23:59.094Z,99488.31
2023-05-17T14:26:32.740Z,99492.34
2023-05-17T14:29:06.545Z,99492.34
2023-05-17T14:31:40.041Z,99498.10
2023-05-17T14:34:13.503Z,99489.83
2023-05-17T14:36:47.041Z,99509.72
2023-05-17T14:39:21.102Z,99496.45
2023-05-17T14:41:54.484Z,99488.20
2023-05-17T14:44:28.033Z,99495.22
2023-05-17T14:47:01.809Z,99493.24
2023-05-17T14:49:35.198Z,99479.66
2023-05-17T14:52:09.029Z,99479.77
2023-05-17T14:54:42.596Z,99488.55
2023-05-17T14:57:16.471Z,99485.42
2023-05-17T14:59:49.899Z,99485.39
2023-05-17T15:02:23.379Z,99479.77
2023-05-17T15:04:57.278Z,99469.44
2023-05-17T15:07:31.621Z,99476.83
2023-05-17T15:10:06.469Z,99482.71
2023-05-17T15:12:40.158Z,99480.20
2023-05-17T15:15:14.510Z,99480.34
2023-05-17T15:17:48.038Z,99480.63
2023-05-17T15:20:22.899Z,99482.13
2023-05-17T15:22:56.856Z,99482.16
2023-05-17T15:25:30.522Z,99482.39
2023-05-17T15:28:03.931Z,99479.20
2023-05-17T15:30:37.611Z,99481.76
2023-05-17T15:33:11.445Z,99489.41
2023-05-17T15:35:45.240Z,99491.21
2023-05-17T15:38:18.426Z,99496.69
2023-05-17T15:40:55.739Z,99494.94
2023-05-17T15:43:29.226Z,99502.73
2023-05-17T15:46:02.805Z,99488.80
2023-05-17T15:48:36.577Z,99491.08
2023-05-17T15:51:10.438Z,99488.28
2023-05-17T15:53:44.365Z,99480.72
2023-05-17T15:56:20.111Z,99480.31
2023-05-17T15:58:55.224Z,99482.56
2023-05-17T16:01:29.336Z,99473.38
2023-05-17T16:04:02.963Z,99469.20
2023-05-17T16:06:37.023Z,99480.72
2023-05-17T16:09:11.973Z,99493.48
2023-05-17T16:11:45.715Z,99470.84
2023-05-17T16:14:19.521Z,99479.42
2023-05-17T16:16:53.483Z,99486.70
2023-05-17T16:19:27.777Z,99490.13
2023-05-17T16:22:01.805Z,99487.95
2023-05-17T16:24:35.893Z,99477.34
2023-05-17T16:27:10.316Z,99490.23
2023-05-17T16:29:44.406Z,99487.17
2023-05-17T16:32:18.754Z,99490.20
2023-05-17T16:34:52.813Z,99488.03
2023-05-17T16:37:26.492Z,99486.38
2023-05-17T16:40:00.771Z,99484.80
2023-05-17T16:42:35.083Z,99488.13
2023-05-17T16:45:10.987Z,99483.14
2023-05-17T16:47:44.294Z,99483.34
2023-05-17T16:50:18.225Z,99482.34
2023-05-17T16:52:52.101Z,99487.53
2023-05-17T16:55:25.643Z,99480.68
2023-05-17T16:57:59.263Z,99485.18
2023-05-17T17:00:32.957Z,99482.11
2023-05-17T17:03:09.564Z,99488.26
2023-05-17T17:05:41.994Z,99481.63
2023-05-17T17:08:15.597Z,99486.58
2023-05-17T17:10:49.083Z,99481.26
2023-05-17T17:13:22.827Z,99489.95
2023-05-17T17:15:56.723Z,99489.45
2023-05-17T17:18:30.325Z,99487.02
2023-05-17T17:21:06.985Z,99489.92
2023-05-17T17:23:40.417Z,99491.94
2023-05-17T17:26:13.945Z,99489.44
2023-05-17T17:28:47.609Z,99493.23
2023-05-17T17:31:20.759Z,99488.20
2023-05-17T17:33:54.785Z,99498.20
2023-05-17T17:36:28.820Z,99500.03
2023-05-17T17:39:02.232Z,99503.84
2023-05-17T17:41:35.915Z,99505.81
2023-05-17T17:44:09.434Z,99502.36
2023-05-17T17:46:43.171Z,99503.22
2023-05-17T17:49:16.650Z,99504.33
2023-05-17T17:51:50.224Z,99514.34
2023-05-17T17:54:23.405Z,99515.32
2023-05-17T17:56:56.975Z,99510.86
2023-05-17T17:59:30.481Z,99512.81
2023-05-17T18:02:03.827Z,99513.80
2023-05-17T18:04:37.502Z,99512.05
2023-05-17T18:07:12.513Z,99514.84
2023-05-17T18:09:46.458Z,99512.30
2023-05-17T18:12:20.792Z,99512.52
2023-05-17T18:14:53.983Z,99511.75
2023-05-17T18:17:28.629Z,99512.86
2023-05-17T18:20:02.123Z,99513.06
2023-05-17T18:22:36.395Z,99515.02
2023-05-17T18:25:11.742Z,99510.67
2023-05-17T18:27:44.961Z,99517.06
2023-05-17T18:33:27.563Z,99502.43
2023-05-17T18:36:01.805Z,99512.66
2023-05-17T18:38:35.636Z,99506.63
2023-05-17T18:41:09.089Z,99508.46
2023-05-17T18:43:42.779Z,99505.09
2023-05-17T18:46:16.385Z,99507.92
2023-05-17T18:48:50.539Z,99503.59
2023-05-17T18:51:24.860Z,99506.39
2023-05-17T18:53:58.774Z,99514.30
2023-05-17T18:56:32.856Z,99509.95
2023-05-17T18:59:06.556Z,99509.11
2023-05-17T19:01:40.287Z,99504.70
2023-05-17T19:04:15.290Z,99495.95
2023-05-17T19:06:49.569Z,99507.56
2023-05-17T19:09:23.126Z,99505.02
2023-05-17T19:11:57.743Z,99512.22
2023-05-17T19:14:32.190Z,99512.39
2023-05-17T19:17:05.870Z,99510.84
2023-05-17T19:19:39.432Z,99516.27
2023-05-17T19:22:13.113Z,99513.75
2023-05-17T19:27:19.975Z,99507.71
2023-05-17T19:29:53.537Z,99517.42
2023-05-17T19:32:27.203Z,99519.22
2023-05-17T19:35:01.330Z,99515.73
2023-05-17T19:37:35.523Z,99517.48
2023-05-17T19:40:10.878Z,99525.56
2023-05-17T19:42:44.479Z,99527.44
2023-05-17T19:45:18.541Z,99518.74
2023-05-17T19:47:53.487Z,99524.08
2023-05-17T19:50:27.635Z,99521.50
2023-05-17T19:53:01.955Z,99529.52
2023-05-17T19:55:36.786Z,99522.52
2023-05-17T19:58:09.944Z,99521.69
2023-05-17T20:00:43.263Z,99523.61
2023-05-17T20:03:16.811Z,99517.55
2023-05-17T20:05:50.826Z,99523.83
2023-05-17T20:08:24.116Z,99520.34
2023-05-17T20:10:58.778Z,99522.19
2023-05-17T20:13:34.218Z,99523.17
2023-05-17T20:16:11.469Z,99518.88
2023-05-17T20:21:19.950Z,99516.55
2023-05-17T20:23:55.424Z,99515.72
2023-05-17T20:26:30.557Z,99520.27
2023-05-17T20:29:04.006Z,99518.59
2023-05-17T20:31:38.132Z,99512.48
2023-05-17T20:34:12.358Z,99513.44
2023-05-17T20:36:46.862Z,99520.61
2023-05-17T20:39:22.222Z,99523.38
2023-05-17T20:41:57.034Z,99524.33
2023-05-17T20:44:30.378Z,99527.00
2023-05-17T20:47:08.173Z,99523.59
2023-05-17T20:49:41.725Z,99528.96
2023-05-17T20:52:17.883Z,99518.50
2023-05-17T20:54:52.233Z,99518.61
2023-05-17T20:57:25.871Z,99523.09
2023-05-17T20:59:59.215Z,99516.14
2023-05-17T21:02:36.690Z,99521.55
2023-05-17T21:05:11.007Z,99522.40
2023-05-17T21:07:45.925Z,99518.94
2023-05-17T21:10:19.211Z,99516.30
2023-05-17T21:12:52.772Z,99519.89
2023-05-17T21:15:26.457Z,99513.70
2023-05-17T21:18:00.565Z,99511.15
2023-05-17T21:20:34.182Z,99515.59
2023-05-17T21:23:07.421Z,99516.55
2023-05-17T21:28:25.219Z,99519.16
2023-05-17T21:31:17.206Z,99524.86
2023-05-17T21:34:02.509Z,99516.97
2023-05-17T21:37:48.238Z,99525.88
2023-05-17T21:40:23.616Z,99531.36
2023-05-17T21:42:56.670Z,99523.66
2023-05-17T21:45:34.335Z,99522.89
2023-05-17T21:48:08.753Z,99522.91
2023-05-17T21:50:42.145Z,99523.00
2023-05-17T21:53:15.801Z,99523.95
2023-05-17T21:56:01.357Z,99515.20
2023-05-17T21:58:25.349Z,99516.95
2023-05-17T22:00:59.021Z,99512.55
2023-05-17T22:03:32.538Z,99510.84
2023-05-17T22:06:06.162Z,99515.38
2023-05-17T22:08:41.113Z,99516.33
2023-05-17T22:11:14.633Z,99513.77
2023-05-17T22:13:47.753Z,99514.77
2023-05-17T22:16:23.997Z,99516.61
2023-05-17T22:18:59.156Z,99517.56
2023-05-17T22:24:20.002Z,99523.65
2023-05-17T22:26:53.249Z,99514.95
2023-05-17T22:29:26.801Z,99517.61
2023-05-17T22:32:00.308Z,99517.66
2023-05-17T22:34:34.449Z,99516.08
2023-05-17T22:37:09.839Z,99512.67
2023-05-17T22:39:43.647Z,99517.92
2023-05-17T22:42:17.271Z,99516.22
2023-05-17T22:44:51.427Z,99510.16
2023-05-17T22:47:26.562Z,99508.41
2023-05-17T22:50:00.901Z,99505.72
2023-05-17T22:52:35.256Z,99515.45
2023-05-17T22:55:10.657Z,99506.78
2023-05-17T22:57:44.219Z,99516.48
2023-05-17T23:00:19.412Z,99511.19
2023-05-17T23:02:52.929Z,99509.52
2023-05-17T23:05:26.940Z,99504.39
2023-05-17T23:08:01.272Z,99515.88
2023-05-17T23:10:35.105Z,99509.81
2023-05-17T23:13:08.883Z,99508.07
2023-05-17T23:15:44.147Z,99509.81
2023-05-17T23:18:18.274Z,99519.55
2023-05-17T23:20:51.607Z,99514.27
2023-05-17T23:23:25.804Z,99516.91
2023-05-17T23:25:59.998Z,99510.64
2023-05-17T23:28:33.626Z,99512.30
2023-05-17T23:31:08.735Z,99515.76
2023-05-17T23:33:42.702Z,99510.46
2023-05-17T23:36:16.372Z,99511.31
2023-05-17T23:38:50.614Z,99513.92
2023-05-17T23:41:25.504Z,99507.78
2023-05-17T23:44:00.577Z,99504.31
2023-05-17T23:46:34.478Z,99516.78
2023-05-17T23:49:08.388Z,99518.82
2023-05-17T23:51:41.927Z,99522.68
2023-05-17T23:54:16.204Z,99518.48
2023-05-17T23:56:50.011Z,99526.58
2023-05-17T23:59:24.532Z,99525.77
